Time;durP1;ratioP1;P1;durP2;ratioP2;P2;SDS_P1;SDS_P2;PMS_P1;PMS_P2;Temp;Humidity;BMP_temperature;BMP_pressure;BME280_temperature;BME280_humidity;BME280_pressure;Samples;Min_cycle;Max_cycle;Signal;HPM_P1;HPM_P2
2023/06/15 00:00:42;;;;;;;2.40;1.53;;;15.00;70.00;;;;;;5016747;28;20468;-71
2023/06/15 00:03:08;;;;;;;0.93;0.90;;;15.00;70.80;;;;;;5015352;28;20423;-71
2023/06/15 00:05:33;;;;;;;1.53;1.43;;;15.10;70.90;;;;;;5016806;28;20458;-71
2023/06/15 00:07:59;;;;;;;0.83;0.83;;;15.10;69.80;;;;;;5016743;28;20188;-71
2023/06/15 00:10:24;;;;;;;1.03;1.00;;;15.00;69.60;;;;;;5016554;28;20172;-71
2023/06/15 00:12:50;;;;;;;1.17;1.00;;;14.90;71.30;;;;;;5016462;28;20199;-72
2023/06/15 00:15:17;;;;;;;3.53;2.10;;;14.80;72.80;;;;;;5016699;28;20186;-71
2023/06/15 00:17:43;;;;;;;0.70;0.70;;;14.60;89.50;;;;;;5016505;28;20174;-72
2023/06/15 00:20:12;;;;;;;2.33;2.23;;;14.70;70.00;;;;;;5016490;28;20411;-72
2023/06/15 00:22:40;;;;;;;5.70;2.53;;;14.70;72.30;;;;;;5016330;28;20421;-71
2023/06/15 00:25:06;;;;;;;2.07;1.83;;;14.70;73.00;;;;;;5016362;28;20604;-72
2023/06/15 00:27:36;;;;;;;1.13;1.00;;;14.30;90.80;;;;;;5016212;28;20403;-71
2023/06/15 00:30:03;;;;;;;1.43;1.33;;;14.50;73.90;;;;;;5016247;28;20411;-72
2023/06/15 00:32:28;;;;;;;1.33;1.33;;;14.50;73.30;;;;;;5015472;28;20417;-71
2023/06/15 00:34:54;;;;;;;1.13;1.10;;;14.50;75.30;;;;;;5016455;28;20414;-71
2023/06/15 00:37:20;;;;;;;2.10;1.83;;;14.50;73.50;;;;;;5016032;28;20171;-71
2023/06/15 00:39:45;;;;;;;0.70;0.70;;;14.60;74.50;;;;;;5016049;28;20686;-71
2023/06/15 00:42:11;;;;;;;1.77;1.67;;;14.40;73.40;;;;;;5016058;28;20414;-71
2023/06/15 00:44:37;;;;;;;0.90;0.90;;;14.30;75.00;;;;;;5016000;28;20180;-71
2023/06/15 00:47:03;;;;;;;0.70;0.70;;;;;;;;;;5015813;28;20215;-71
2023/06/15 00:49:29;;;;;;;2.03;1.27;;;14.10;75.10;;;;;;5015873;28;20263;-71
2023/06/15 00:51:55;;;;;;;2.50;1.83;;;14.00;76.50;;;;;;5015856;28;20407;-71
2023/06/15 00:54:24;;;;;;;1.73;1.23;;;14.00;77.30;;;;;;5015583;28;20399;-72
2023/06/15 00:56:53;;;;;;;1.90;1.80;;;14.00;77.10;;;;;;5015814;28;20405;-71
2023/06/15 00:59:20;;;;;;;2.53;1.63;;;14.00;77.20;;;;;;5015664;28;20426;-72
2023/06/15 01:01:47;;;;;;;1.00;0.90;;;14.00;77.20;;;;;;5015824;28;20403;-71
2023/06/15 01:04:14;;;;;;;1.87;1.33;;;13.90;78.20;;;;;;5015611;28;20881;-71
2023/06/15 01:06:42;;;;;;;1.93;1.47;;;13.90;78.60;;;;;;5015410;28;20503;-71
2023/06/15 01:09:11;;;;;;;1.90;1.80;;;13.70;78.30;;;;;;5015680;28;20960;-71
2023/06/15 01:11:38;;;;;;;3.30;2.07;;;13.60;80.20;;;;;;5015508;28;20421;-71
2023/06/15 01:14:05;;;;;;;2.33;1.60;;;13.60;79.90;;;;;;5015410;28;20403;-71
2023/06/15 01:16:40;;;;;;;0.60;0.60;;;13.60;80.80;;;;;;5015332;28;20910;-72
2023/06/15 01:19:31;;;;;;;1.77;1.67;;;13.60;79.50;;;;;;5015205;28;20438;-71
2023/06/15 01:22:11;;;;;;;1.20;1.10;;;13.60;79.80;;;;;;5015269;28;20418;-71
2023/06/15 01:24:39;;;;;;;0.97;0.60;;;13.50;80.50;;;;;;5015534;28;20481;-71
2023/06/15 01:27:09;;;;;;;2.30;2.10;;;13.50;80.40;;;;;;5015350;28;20410;-71
2023/06/15 01:29:36;;;;;;;1.97;1.87;;;13.50;81.60;;;;;;5015304;28;20426;-71
2023/06/15 01:32:04;;;;;;;0.80;0.80;;;13.50;80.20;;;;;;5015049;28;20818;-71
2023/06/15 01:34:31;;;;;;;1.10;0.90;;;13.50;80.20;;;;;;5014974;28;20840;-72
2023/06/15 01:36:56;;;;;;;2.10;1.90;;;13.50;79.90;;;;;;5015137;28;20584;-72
2023/06/15 01:39:22;;;;;;;2.37;2.20;;;13.50;79.70;;;;;;5014891;28;20461;-71
2023/06/15 01:41:49;;;;;;;1.87;1.63;;;13.50;80.70;;;;;;5015139;28;20160;-71
2023/06/15 01:44:15;;;;;;;0.90;0.90;;;13.50;79.40;;;;;;5013566;28;20449;-71
2023/06/15 01:46:42;;;;;;;0.60;0.60;;;13.50;79.30;;;;;;5014764;28;20486;-71
2023/06/15 01:49:07;;;;;;;1.10;1.00;;;13.50;80.20;;;;;;5014652;28;20459;-71
2023/06/15 01:51:33;;;;;;;1.23;0.97;;;13.60;80.90;;;;;;5014862;28;20801;-71
2023/06/15 01:53:59;;;;;;;0.90;0.90;;;13.50;81.00;;;;;;5014778;28;20547;-72
2023/06/15 01:56:25;;;;;;;1.03;0.93;;;13.50;82.20;;;;;;5014885;28;20588;-72
2023/06/15 01:58:51;;;;;;;0.70;0.70;;;13.50;83.40;;;;;;5014607;28;20226;-71
2023/06/15 02:01:16;;;;;;;1.80;1.57;;;13.50;82.20;;;;;;5014711;28;20441;-71
2023/06/15 02:03:42;;;;;;;2.50;1.83;;;13.40;82.10;;;;;;5014436;28;20207;-71
2023/06/15 02:06:08;;;;;;;1.33;1.23;;;13.40;82.60;;;;;;5014838;28;20195;-71
2023/06/15 02:08:33;;;;;;;2.60;2.40;;;13.40;83.00;;;;;;5014533;28;20293;-71
2023/06/15 02:11:00;;;;;;;2.50;1.90;;;13.40;82.70;;;;;;5014437;28;20414;-71
2023/06/15 02:13:25;;;;;;;2.40;1.77;;;13.20;83.50;;;;;;5014270;28;20254;-71
2023/06/15 02:15:51;;;;;;;0.97;0.93;;;13.20;84.00;;;;;;5014700;28;20493;-71
2023/06/15 02:18:16;;;;;;;1.27;1.17;;;13.20;84.90;;;;;;5014291;28;20260;-71
2023/06/15 02:20:43;;;;;;;1.40;1.33;;;13.20;84.40;;;;;;5014392;28;20506;-71
2023/06/15 02:23:10;;;;;;;3.03;1.10;;;13.10;85.10;;;;;;5014300;28;20178;-72
2023/06/15 02:25:36;;;;;;;0.90;0.90;;;13.00;85.60;;;;;;5014063;28;20507;-71
2023/06/15 02:28:02;;;;;;;0.93;0.93;;;13.00;86.20;;;;;;5014240;28;20445;-71
2023/06/15 02:30:27;;;;;;;0.93;0.83;;;13.00;86.00;;;;;;5014084;28;20968;-71
2023/06/15 02:32:53;;;;;;;6.33;2.60;;;13.00;87.00;;;;;;5014047;28;20173;-71
2023/06/15 02:35:20;;;;;;;2.60;1.93;;;12.90;87.30;;;;;;5014115;28;20529;-71
2023/06/15 02:37:46;;;;;;;0.80;0.80;;;12.80;98.90;;;;;;5014188;28;20420;-71
2023/06/15 02:40:12;;;;;;;2.60;2.40;;;12.70;88.90;;;;;;5013953;28;20417;-71
2023/06/15 02:42:38;;;;;;;1.30;1.20;;;12.60;89.40;;;;;;5013767;28;20552;-71
2023/06/15 02:45:07;;;;;;;4.50;1.70;;;12.60;90.10;;;;;;5014073;28;20460;-71
2023/06/15 02:47:35;;;;;;;3.03;2.93;;;12.70;98.10;;;;;;5013670;28;20822;-71
2023/06/15 02:50:01;;;;;;;0.70;0.70;;;12.60;89.80;;;;;;5013888;28;20410;-71
2023/06/15 02:52:27;;;;;;;1.03;1.00;;;12.60;89.60;;;;;;5013752;28;20406;-71
2023/06/15 02:54:52;;;;;;;1.80;1.70;;;12.60;90.20;;;;;;5013408;28;20964;-72
2023/06/15 02:57:18;;;;;;;1.33;1.23;;;12.60;90.30;;;;;;5013759;28;20233;-71
2023/06/15 02:59:44;;;;;;;1.63;1.07;;;12.60;90.30;;;;;;5014125;28;20536;-71
2023/06/15 03:02:10;;;;;;;2.47;2.10;;;12.60;90.60;;;;;;5013763;28;20175;-71
2023/06/15 03:04:44;;;;;;;2.93;2.73;;;12.50;90.90;;;;;;5013727;28;20463;-71
2023/06/15 03:07:16;;;;;;;1.33;1.20;;;12.60;90.80;;;;;;5013903;28;20461;-71
2023/06/15 03:09:48;;;;;;;1.30;1.20;;;12.60;90.90;;;;;;5013737;28;20427;-72
2023/06/15 03:12:14;;;;;;;1.57;1.57;;;12.50;90.80;;;;;;5013487;28;20403;-71
2023/06/15 03:14:44;;;;;;;1.87;0.60;;;12.50;91.30;;;;;;5013732;28;20403;-71
2023/06/15 03:17:11;;;;;;;0.77;0.77;;;12.50;91.10;;;;;;5013568;28;20424;-71
2023/06/15 03:19:36;;;;;;;1.93;1.23;;;12.40;91.20;;;;;;5013564;28;20426;-71
2023/06/15 03:22:03;;;;;;;1.70;1.50;;;12.40;91.20;;;;;;5013576;28;20406;-71
2023/06/15 03:24:30;;;;;;;1.57;1.47;;;12.30;91.60;;;;;;5013273;28;20176;-71
2023/06/15 03:26:58;;;;;;;4.20;2.20;;;12.40;91.60;;;;;;5013542;28;20939;-72
2023/06/15 03:29:26;;;;;;;1.93;1.83;;;12.50;91.80;;;;;;5012170;28;20965;-71
2023/06/15 03:31:53;;;;;;;1.40;1.30;;;12.40;92.00;;;;;;5013633;28;20772;-71
2023/06/15 03:34:18;;;;;;;2.63;1.80;;;12.40;92.00;;;;;;5013430;28;20406;-71
2023/06/15 03:36:44;;;;;;;1.07;1.07;;;12.40;91.40;;;;;;5013569;28;20812;-72
2023/06/15 03:39:09;;;;;;;1.63;1.63;;;12.50;91.60;;;;;;5013153;28;20196;-73
2023/06/15 03:41:37;;;;;;;1.33;1.33;;;;;;;;;;5013490;28;20174;-72
2023/06/15 03:44:03;;;;;;;1.63;1.30;;;12.30;98.20;;;;;;5012557;28;20248;-72
2023/06/15 03:46:29;;;;;;;5.83;2.40;;;12.40;92.10;;;;;;5012626;28;20503;-71
2023/06/15 03:48:55;;;;;;;2.07;1.97;;;12.40;91.90;;;;;;5013038;28;20974;-71
2023/06/15 03:51:20;;;;;;;1.63;1.53;;;12.30;91.80;;;;;;5012963;28;20243;-71
2023/06/15 03:53:46;;;;;;;1.27;1.23;;;12.30;92.00;;;;;;5013073;28;20440;-71
2023/06/15 03:56:12;;;;;;;1.40;0.97;;;12.30;92.40;;;;;;5013357;28;20505;-71
2023/06/15 03:58:38;;;;;;;2.43;2.33;;;12.40;92.40;;;;;;5013229;28;20434;-70
2023/06/15 04:01:04;;;;;;;0.90;0.87;;;12.50;91.80;;;;;;5013181;28;20539;-71
2023/06/15 04:03:34;;;;;;;2.17;2.03;;;12.60;91.60;;;;;;5013019;28;20182;-71
2023/06/15 04:06:01;;;;;;;0.90;0.90;;;12.60;91.70;;;;;;5013432;28;20457;-70
2023/06/15 04:08:27;;;;;;;1.17;1.07;;;12.70;92.90;;;;;;5015794;28;20513;-71
2023/06/15 04:10:52;;;;;;;1.40;1.30;;;13.00;92.70;;;;;;5016631;28;20992;-72
2023/06/15 04:13:18;;;;;;;1.67;1.60;;;13.40;93.80;;;;;;5016523;28;20956;-71
2023/06/15 04:15:44;;;;;;;0.77;0.77;;;13.90;92.00;;;;;;5016623;28;20202;-71
2023/06/15 04:18:09;;;;;;;2.00;1.90;;;14.40;91.00;;;;;;5016436;28;20675;-71
2023/06/15 04:20:36;;;;;;;2.50;2.30;;;14.90;89.60;;;;;;5016699;28;20613;-71
2023/06/15 04:23:01;;;;;;;1.80;1.70;;;15.40;86.70;;;;;;5016376;28;20181;-71
2023/06/15 04:25:28;;;;;;;1.80;1.33;;;15.60;82.10;;;;;;5016281;28;20510;-71
2023/06/15 04:27:55;;;;;;;1.07;0.97;;;15.30;81.30;;;;;;5016540;28;20222;-71
2023/06/15 04:30:24;;;;;;;1.80;1.70;;;15.00;82.50;;;;;;5016325;28;20881;-71
2023/06/15 04:32:57;;;;;;;1.10;1.00;;;14.60;83.40;;;;;;5016024;28;20410;-71
2023/06/15 04:35:24;;;;;;;1.97;1.77;;;14.30;86.10;;;;;;5016620;28;20419;-71
2023/06/15 04:37:53;;;;;;;4.13;2.13;;;14.00;87.30;;;;;;5016214;28;20440;-71
2023/06/15 04:40:20;;;;;;;2.00;1.90;;;13.80;88.60;;;;;;5014792;28;20458;-71
2023/06/15 04:42:46;;;;;;;2.43;2.23;;;13.60;89.70;;;;;;5015920;28;20414;-71
2023/06/15 04:45:11;;;;;;;1.50;1.40;;;13.40;90.10;;;;;;5016026;28;20495;-71
2023/06/15 04:47:37;;;;;;;1.07;1.07;;;13.40;97.40;;;;;;5015875;28;20437;-71
2023/06/15 04:50:03;;;;;;;1.43;1.43;;;13.30;91.60;;;;;;5016171;28;20179;-71
2023/06/15 04:52:29;;;;;;;1.97;1.40;;;13.40;91.90;;;;;;5015849;28;20175;-71
2023/06/15 04:54:55;;;;;;;3.00;2.80;;;13.50;91.10;;;;;;5015986;28;20770;-71
2023/06/15 04:57:21;;;;;;;1.80;1.70;;;13.70;90.10;;;;;;5015749;28;20622;-71
2023/06/15 04:59:47;;;;;;;3.23;2.97;;;13.90;90.20;;;;;;5015704;28;20199;-71
2023/06/15 05:02:12;;;;;;;2.80;2.60;;;14.00;89.70;;;;;;5015741;28;20777;-71
2023/06/15 05:04:38;;;;;;;2.20;2.00;;;14.30;90.10;;;;;;5015804;28;20280;-71
2023/06/15 05:07:04;;;;;;;2.90;2.33;;;14.70;90.10;;;;;;5015771;28;20180;-71
2023/06/15 05:09:30;;;;;;;3.57;2.10;;;15.00;89.50;;;;;;5015527;28;20680;-71
2023/06/15 05:11:56;;;;;;;1.23;1.13;;;15.20;88.10;;;;;;5015749;28;20405;-71
2023/06/15 05:14:22;;;;;;;2.93;2.40;;;15.50;86.20;;;;;;5015372;28;20175;-71
2023/06/15 05:16:48;;;;;;;1.43;1.20;;;15.80;85.00;;;;;;5015766;28;20913;-72
2023/06/15 05:19:14;;;;;;;1.80;1.70;;;;;;;;;;5015105;28;20213;-71
2023/06/15 05:21:40;;;;;;;1.30;1.20;;;16.40;81.50;;;;;;5015483;28;20179;-71
2023/06/15 05:24:06;;;;;;;1.07;1.00;;;16.40;78.90;;;;;;5014971;28;20410;-71
2023/06/15 05:26:32;;;;;;;5.60;1.83;;;16.30;77.30;;;;;;5015177;28;20202;-71
2023/06/15 05:28:57;;;;;;;1.50;1.40;;;16.20;79.70;;;;;;5015264;28;20434;-71
2023/06/15 05:31:23;;;;;;;1.07;1.07;;;16.30;81.50;;;;;;5015400;28;20179;-71
2023/06/15 05:33:48;;;;;;;1.83;1.70;;;16.20;79.30;;;;;;5014995;28;20175;-71
2023/06/15 05:36:14;;;;;;;1.93;1.83;;;16.30;80.80;;;;;;5015176;28;20172;-72
2023/06/15 05:38:40;;;;;;;0.80;0.80;;;16.60;81.90;;;;;;5014971;28;20258;-72
2023/06/15 05:41:06;;;;;;;1.00;0.90;;;16.80;81.40;;;;;;5015353;28;20675;-72
2023/06/15 05:43:31;;;;;;;1.73;1.63;;;17.10;80.70;;;;;;5014786;28;20210;-71
2023/06/15 05:45:57;;;;;;;2.23;2.10;;;17.30;80.20;;;;;;5014840;28;20257;-72
2023/06/15 05:48:23;;;;;;;1.53;1.43;;;17.30;79.10;;;;;;5014693;28;20209;-71
2023/06/15 05:50:48;;;;;;;2.63;1.83;;;17.20;77.80;;;;;;5014887;28;20191;-72
2023/06/15 05:53:14;;;;;;;1.43;1.33;;;17.20;79.00;;;;;;5014625;28;20254;-71
2023/06/15 05:55:40;;;;;;;2.47;1.27;;;17.10;79.70;;;;;;5014669;28;20210;-71
2023/06/15 05:58:05;;;;;;;1.23;1.13;;;17.20;79.60;;;;;;5014770;28;20491;-72
2023/06/15 06:00:31;;;;;;;1.33;0.67;;;17.40;80.60;;;;;;5014769;28;20637;-71
2023/06/15 06:02:58;;;;;;;1.67;1.57;;;17.70;80.00;;;;;;5014456;28;20183;-72
2023/06/15 06:05:23;;;;;;;1.83;1.73;;;18.10;78.80;;;;;;5014459;28;20614;-73
2023/06/15 06:07:50;;;;;;;1.40;1.13;;;18.50;92.40;;;;;;5014579;28;20496;-73
2023/06/15 06:10:19;;;;;;;4.50;3.93;;;18.60;75.80;;;;;;5014424;28;20635;-73
2023/06/15 06:12:44;;;;;;;1.40;1.13;;;18.80;76.20;;;;;;5014250;28;20417;-72
2023/06/15 06:15:10;;;;;;;2.23;1.57;;;18.80;75.00;;;;;;5014582;28;20411;-72
2023/06/15 06:17:36;;;;;;;1.00;0.80;;;20.50;83.90;;;;;;5014196;28;20194;-72
2023/06/15 06:20:05;;;;;;;0.83;0.83;;;20.40;74.80;;;;;;5014373;28;20175;-72
2023/06/15 06:22:30;;;;;;;2.57;2.20;;;22.10;69.90;;;;;;5014256;28;20560;-72
2023/06/15 06:24:56;;;;;;;0.90;0.90;;;24.30;64.70;;;;;;5014124;28;20442;-71
2023/06/15 06:27:21;;;;;;;1.10;1.10;;;25.80;57.90;;;;;;5014416;28;20529;-70
2023/06/15 06:29:48;;;;;;;2.60;0.83;;;26.20;55.10;;;;;;5013466;28;20232;-71
2023/06/15 06:32:13;;;;;;;1.73;0.97;;;26.00;52.20;;;;;;5014089;28;20175;-71
2023/06/15 06:34:39;;;;;;;1.40;1.30;;;25.60;53.20;;;;;;5014257;28;20402;-70
2023/06/15 06:37:05;;;;;;;1.10;1.00;;;26.50;54.40;;;;;;5013971;28;20654;-71
2023/06/15 06:39:31;;;;;;;1.83;1.13;;;28.00;51.00;;;;;;5013976;28;20191;-71
2023/06/15 06:41:57;;;;;;;1.30;1.07;;;29.30;47.90;;;;;;5014183;28;20175;-71
2023/06/15 06:44:23;;;;;;;1.20;1.10;;;30.10;46.20;;;;;;5013799;28;20465;-71
2023/06/15 06:46:49;;;;;;;1.90;1.53;;;30.80;44.10;;;;;;5013980;28;20211;-71
2023/06/15 06:49:15;;;;;;;1.27;1.10;;;31.60;43.70;;;;;;5013716;28;20453;-71
2023/06/15 06:51:41;;;;;;;1.57;1.47;;;31.80;42.20;;;;;;5013869;28;20173;-71
2023/06/15 06:54:07;;;;;;;1.27;1.07;;;31.80;41.70;;;;;;5013612;28;20402;-71
2023/06/15 06:56:32;;;;;;;1.87;1.77;;;32.20;41.10;;;;;;5013937;28;20175;-72
2023/06/15 06:58:58;;;;;;;1.43;1.33;;;33.10;40.10;;;;;;5013480;28;20199;-72
2023/06/15 07:01:24;;;;;;;0.77;0.77;;;33.90;38.40;;;;;;5013974;28;20176;-70
2023/06/15 07:03:51;;;;;;;1.20;1.10;;;34.50;37.60;;;;;;5013568;28;20628;-71
2023/06/15 07:06:17;;;;;;;1.27;1.10;;;34.70;35.70;;;;;;5013792;28;20549;-71
2023/06/15 07:08:42;;;;;;;2.60;1.13;;;34.20;35.30;;;;;;5013665;28;20466;-71
2023/06/15 07:11:08;;;;;;;1.07;0.97;;;33.40;35.80;;;;;;5014088;28;20171;-72
2023/06/15 07:13:34;;;;;;;1.27;1.03;;;33.10;36.50;;;;;;5013592;28;20176;-71
2023/06/15 07:15:59;;;;;;;1.60;1.50;;;32.90;36.10;;;;;;5013753;28;20531;-71
2023/06/15 07:18:25;;;;;;;0.90;0.73;;;33.00;35.80;;;;;;5014149;28;20196;-72
2023/06/15 07:20:54;;;;;;;1.10;1.10;;;33.30;35.60;;;;;;5013289;28;20573;-71
2023/06/15 07:23:24;;;;;;;1.53;1.43;;;33.40;34.20;;;;;;5012907;28;20911;-71
2023/06/15 07:25:53;;;;;;;1.40;1.30;;;32.30;35.60;;;;;;5012534;28;20462;-71
2023/06/15 07:28:19;;;;;;;1.50;1.23;;;31.80;35.30;;;;;;5013524;28;20890;-72
2023/06/15 07:30:48;;;;;;;1.20;1.10;;;31.60;32.90;;;;;;5013633;28;20787;-71
2023/06/15 07:33:14;;;;;;;1.73;1.00;;;31.10;33.90;;;;;;5013458;28;20460;-71
2023/06/15 07:35:40;;;;;;;1.00;0.90;;;31.00;33.30;;;;;;5013435;28;20494;-71
2023/06/15 07:38:05;;;;;;;1.27;1.27;;;29.90;34.70;;;;;;5013447;28;20692;-72
2023/06/15 07:40:31;;;;;;;1.70;1.23;;;29.90;35.90;;;;;;5013229;28;20549;-71
2023/06/15 07:42:56;;;;;;;1.33;1.00;;;30.20;36.30;;;;;;5016757;28;20187;-71
2023/06/15 07:45:22;;;;;;;1.37;1.27;;;30.90;36.40;;;;;;5016821;28;20199;-71
2023/06/15 07:47:48;;;;;;;4.43;1.37;;;31.20;41.60;;;;;;5016712;28;20191;-71
2023/06/15 07:50:13;;;;;;;1.27;1.03;;;31.30;31.60;;;;;;5017114;28;20242;-72
2023/06/15 07:52:39;;;;;;;1.50;1.40;;;31.30;30.70;;;;;;5016752;28;20190;-72
2023/06/15 07:55:06;;;;;;;1.00;1.00;;;32.10;31.50;;;;;;5017018;28;20187;-72
2023/06/15 07:57:31;;;;;;;0.97;0.97;;;33.10;29.90;;;;;;5016887;28;20258;-71
2023/06/15 07:59:58;;;;;;;1.37;0.97;;;33.50;29.30;;;;;;5016848;28;20518;-72
2023/06/15 08:02:24;;;;;;;1.23;1.10;;;33.60;29.20;;;;;;5016637;28;20617;-71
2023/06/15 08:04:50;;;;;;;2.00;1.33;;;33.20;29.00;;;;;;5017138;28;20494;-73
2023/06/15 08:07:16;;;;;;;1.93;1.67;;;32.80;29.90;;;;;;5016785;28;20530;-73
2023/06/15 08:09:42;;;;;;;0.97;0.97;;;31.10;30.00;;;;;;5015457;28;20620;-73
2023/06/15 08:12:09;;;;;;;0.97;0.97;;;30.00;32.70;;;;;;5016868;28;20221;-73
2023/06/15 08:14:35;;;;;;;1.50;1.37;;;30.90;31.40;;;;;;5016481;28;20406;-72
2023/06/15 08:17:01;;;;;;;0.77;0.77;;;31.20;30.00;;;;;;5016655;28;20410;-71
2023/06/15 08:19:27;;;;;;;1.20;1.10;;;31.50;31.00;;;;;;5016388;28;20537;-73
2023/06/15 08:21:53;;;;;;;1.47;1.13;;;32.10;30.40;;;;;;5016844;28;20180;-72
2023/06/15 08:24:18;;;;;;;2.60;1.23;;;32.80;29.80;;;;;;5016297;28;20176;-73
2023/06/15 08:26:45;;;;;;;0.90;0.80;;;32.40;30.00;;;;;;5015998;28;20210;-72
2023/06/15 08:29:10;;;;;;;1.20;1.13;;;32.50;29.70;;;;;;5015680;28;20191;-71
2023/06/15 08:31:36;;;;;;;0.80;0.80;;;31.80;29.90;;;;;;5015178;28;20468;-71
2023/06/15 08:34:02;;;;;;;1.37;1.27;;;30.70;32.00;;;;;;5015842;28;20172;-71
2023/06/15 08:36:28;;;;;;;1.17;1.07;;;30.50;31.30;;;;;;5015900;28;20792;-73
2023/06/15 08:38:54;;;;;;;0.53;0.53;;;29.80;31.50;;;;;;5016038;28;20191;-73
2023/06/15 08:41:22;;;;;;;2.40;1.70;;;29.40;33.30;;;;;;5016235;28;20414;-72
2023/06/15 08:43:50;;;;;;;1.07;0.97;;;30.20;33.40;;;;;;5015853;28;20179;-73
2023/06/15 08:46:16;;;;;;;1.53;1.43;;;31.80;32.30;;;;;;5015856;28;20458;-73
2023/06/15 08:48:45;;;;;;;0.77;0.77;;;32.50;30.00;;;;;;5015803;28;20884;-73
2023/06/15 08:51:12;;;;;;;1.37;1.17;;;31.80;30.80;;;;;;5016146;28;20218;-72
2023/06/15 08:53:40;;;;;;;1.13;0.93;;;30.40;32.70;;;;;;5015241;28;20460;-72
2023/06/15 08:56:11;;;;;;;0.90;0.90;;;29.40;32.90;;;;;;5015945;28;20923;-73
2023/06/15 08:58:37;;;;;;;1.23;1.03;;;29.40;33.50;;;;;;5015122;28;20520;-73
2023/06/15 09:01:03;;;;;;;2.10;1.10;;;29.80;32.90;;;;;;5015357;28;20946;-73
2023/06/15 09:03:31;;;;;;;0.80;0.67;;;30.40;32.60;;;;;;5014855;28;20776;-72
2023/06/15 09:05:57;;;;;;;1.40;1.30;;;31.40;31.50;;;;;;5030504;28;20470;-72
2023/06/15 09:08:28;;;;;;;1.40;1.30;;;32.00;31.70;;;;;;5015141;28;20778;-72
2023/06/15 09:11:08;;;;;;;1.73;1.63;;;32.60;30.80;;;;;;5015441;28;20176;-73
2023/06/15 09:13:34;;;;;;;1.17;1.10;;;32.00;31.00;;;;;;5015460;28;20406;-73
2023/06/15 09:16:01;;;;;;;1.40;1.10;;;32.00;31.60;;;;;;5015206;28;20406;-73
2023/06/15 09:18:27;;;;;;;1.57;1.47;;;32.50;31.30;;;;;;5015375;28;20950;-73
2023/06/15 09:21:00;;;;;;;2.50;1.30;;;32.10;31.80;;;;;;5015763;28;20883;-71
2023/06/15 09:23:26;;;;;;;1.63;1.33;;;31.30;33.00;;;;;;5015265;28;20501;-71
2023/06/15 09:25:56;;;;;;;0.73;0.70;;;30.50;33.40;;;;;;5015173;28;20458;-72
2023/06/15 09:28:26;;;;;;;1.37;0.90;;;29.70;34.00;;;;;;5015682;28;20505;-72
2023/06/15 09:30:57;;;;;;;1.37;1.07;;;28.90;35.10;;;;;;5014933;28;20453;-74
2023/06/15 09:33:22;;;;;;;0.60;0.60;;;28.30;37.70;;;;;;5015054;28;20410;-74
2023/06/15 09:36:04;;;;;;;4.30;1.50;;;27.50;37.50;;;;;;5014718;28;20476;-72
2023/06/15 09:38:40;;;;;;;4.40;1.60;;;27.00;39.90;;;;;;5015546;28;20197;-73
2023/06/15 09:41:07;;;;;;;1.93;1.73;;;26.50;43.20;;;;;;5015139;28;20857;-74
2023/06/15 09:43:34;;;;;;;1.67;1.27;;;26.10;43.90;;;;;;5014677;28;20410;-73
2023/06/15 09:46:10;;;;;;;0.97;0.97;;;25.60;40.90;;;;;;5014918;28;20507;-72
2023/06/15 09:48:43;;;;;;;2.00;1.90;;;25.10;42.60;;;;;;5014501;28;20459;-73
2023/06/15 09:51:10;;;;;;;2.73;0.93;;;24.70;43.30;;;;;;5015065;28;20405;-74
2023/06/15 09:53:37;;;;;;;1.40;1.30;;;24.40;42.50;;;;;;5014590;28;20433;-73
2023/06/15 09:56:03;;;;;;;1.30;1.20;;;24.30;43.10;;;;;;5014800;28;20413;-73
2023/06/15 09:58:29;;;;;;;1.00;1.00;;;24.10;42.40;;;;;;5014648;28;21022;-73
2023/06/15 10:00:57;;;;;;;1.50;1.40;;;24.00;46.00;;;;;;5014817;28;20498;-74
2023/06/15 10:03:24;;;;;;;1.90;1.00;;;23.80;46.90;;;;;;5014461;28;21081;-73
2023/06/15 10:06:01;;;;;;;0.80;0.80;;;23.50;48.10;;;;;;5013496;28;20804;-73
2023/06/15 10:08:31;;;;;;;1.13;1.13;;;23.30;49.40;;;;;;5014528;28;20512;-73
2023/06/15 10:10:58;;;;;;;2.40;1.63;;;23.20;49.50;;;;;;5014448;28;20502;-73
2023/06/15 10:13:35;;;;;;;1.33;1.23;;;23.00;50.30;;;;;;5013959;28;20784;-73
2023/06/15 10:16:03;;;;;;;1.10;1.10;;;22.90;50.20;;;;;;5013973;28;20410;-73
2023/06/15 10:18:30;;;;;;;1.13;1.13;;;22.70;50.70;;;;;;5013669;28;20505;-73
2023/06/15 10:20:59;;;;;;;1.40;1.20;;;22.60;51.40;;;;;;5013784;28;20551;-73
2023/06/15 10:23:27;;;;;;;2.70;1.90;;;22.50;51.50;;;;;;5014042;28;20413;-73
2023/06/15 10:25:55;;;;;;;1.30;1.03;;;22.50;50.20;;;;;;5014130;28;20463;-73
2023/06/15 10:28:26;;;;;;;2.20;2.10;;;22.40;50.70;;;;;;5014274;28;20873;-73
2023/06/15 10:31:07;;;;;;;1.77;1.67;;;22.50;50.40;;;;;;5014420;28;20417;-73
2023/06/15 10:33:43;;;;;;;1.70;1.37;;;22.50;51.40;;;;;;5014098;28;20406;-73
2023/06/15 10:36:12;;;;;;;1.60;1.27;;;22.60;50.10;;;;;;5014134;28;20421;-73
2023/06/15 10:38:45;;;;;;;1.93;1.83;;;22.60;48.40;;;;;;5013919;28;20412;-72
2023/06/15 10:41:11;;;;;;;3.10;1.87;;;22.70;48.90;;;;;;5014461;28;20845;-73
2023/06/15 10:43:36;;;;;;;1.10;1.10;;;23.00;50.70;;;;;;5013820;28;20438;-72
2023/06/15 10:46:02;;;;;;;1.53;1.43;;;23.20;50.30;;;;;;5013902;28;20458;-73
2023/06/15 10:48:29;;;;;;;2.17;1.97;;;24.00;48.80;;;;;;5013626;28;20208;-73
2023/06/15 10:51:21;;;;;;;1.73;1.63;;;24.70;48.30;;;;;;5013937;28;20172;-74
2023/06/15 10:53:47;;;;;;;1.40;1.30;;;25.10;44.30;;;;;;5013610;28;20427;-73
2023/06/15 10:56:19;;;;;;;2.90;2.30;;;25.30;43.80;;;;;;5013959;28;20418;-73
2023/06/15 10:58:57;;;;;;;1.70;1.57;;;25.20;43.50;;;;;;5013797;28;20191;-73
2023/06/15 11:01:25;;;;;;;0.93;0.90;;;25.00;43.80;;;;;;5014067;28;20773;-73
2023/06/15 11:03:53;;;;;;;0.90;0.90;;;25.00;45.20;;;;;;5013518;28;20495;-73
2023/06/15 11:06:21;;;;;;;1.43;1.30;;;25.10;47.50;;;;;;5013641;28;20436;-73
2023/06/15 11:08:53;;;;;;;1.73;1.43;;;25.20;45.50;;;;;;5013629;28;20892;-73
2023/06/15 11:11:26;;;;;;;1.23;1.17;;;25.10;44.50;;;;;;5012403;28;20931;-72
2023/06/15 11:14:03;;;;;;;0.90;0.90;;;24.60;43.70;;;;;;5013569;28;20436;-73
2023/06/15 11:16:34;;;;;;;1.67;1.33;;;24.50;43.30;;;;;;5015281;28;20410;-73
2023/06/15 11:19:11;;;;;;;1.60;1.40;;;24.40;44.20;;;;;;5017576;28;20443;-73
2023/06/15 11:21:44;;;;;;;1.50;1.40;;;24.10;44.80;;;;;;5017861;28;20767;-73
2023/06/15 11:24:13;;;;;;;1.47;1.37;;;24.20;46.50;;;;;;5017485;28;20414;-73
2023/06/15 11:26:43;;;;;;;2.10;1.30;;;24.20;43.90;;;;;;5017567;28;20954;-72
2023/06/15 11:29:16;;;;;;;1.63;1.53;;;24.50;47.10;;;;;;5017414;28;20450;-73
2023/06/15 11:31:42;;;;;;;0.90;0.90;;;24.70;46.60;;;;;;5017551;28;20785;-72
2023/06/15 11:34:11;;;;;;;1.40;1.30;;;24.80;46.50;;;;;;5017167;28;20377;-74
2023/06/15 11:36:37;;;;;;;0.93;0.90;;;24.60;45.00;;;;;;5017386;28;20211;-73
2023/06/15 11:39:07;;;;;;;1.27;1.17;;;24.50;46.00;;;;;;5017152;28;20911;-73
2023/06/15 11:41:33;;;;;;;2.00;0.90;;;24.40;46.50;;;;;;5017205;28;20513;-73
2023/06/15 11:43:58;;;;;;;1.47;0.90;;;24.40;46.10;;;;;;5015644;28;20874;-73
2023/06/15 11:46:25;;;;;;;1.37;1.27;;;24.60;47.00;;;;;;5016999;28;20290;-73
2023/06/15 11:48:55;;;;;;;1.53;1.43;;;24.90;47.40;;;;;;5015181;28;20214;-72
2023/06/15 11:51:22;;;;;;;1.70;1.60;;;25.00;44.90;;;;;;5017093;28;20770;-73
2023/06/15 11:53:47;;;;;;;1.07;1.07;;;24.90;46.00;;;;;;5016535;28;20399;-74
2023/06/15 11:56:15;;;;;;;1.00;1.00;;;24.90;45.20;;;;;;5017070;28;20414;-73
2023/06/15 11:58:42;;;;;;;1.60;1.37;;;24.80;45.60;;;;;;5015838;28;20194;-73
2023/06/15 12:01:11;;;;;;;1.37;1.00;;;24.70;47.00;;;;;;5016698;28;20389;-72
2023/06/15 12:03:40;;;;;;;1.33;1.23;;;24.60;44.30;;;;;;5015889;28;20416;-72
2023/06/15 12:06:06;;;;;;;2.33;2.23;;;24.60;45.40;;;;;;5015993;28;20424;-72
2023/06/15 12:08:33;;;;;;;1.40;1.30;;;24.90;44.50;;;;;;5016671;28;20412;-74
2023/06/15 12:10:59;;;;;;;1.10;1.00;;;25.10;45.70;;;;;;5016852;28;20406;-73
2023/06/15 12:13:26;;;;;;;1.30;1.20;;;25.30;43.20;;;;;;5016833;28;20386;-73
2023/06/15 12:15:52;;;;;;;1.70;1.60;;;25.40;43.90;;;;;;5016684;28;20377;-73
2023/06/15 12:18:19;;;;;;;2.60;1.63;;;25.60;42.40;;;;;;5016886;28;20408;-73
2023/06/15 12:20:46;;;;;;;1.60;1.10;;;25.80;41.90;;;;;;5017198;28;20905;-74
2023/06/15 12:23:25;;;;;;;1.17;1.10;;;25.90;42.00;;;;;;5015084;28;20425;-72
2023/06/15 12:25:55;;;;;;;1.23;1.07;;;25.70;44.20;;;;;;5016731;28;20433;-73
2023/06/15 12:28:22;;;;;;;1.30;1.23;;;26.00;42.50;;;;;;5015839;28;20405;-73
2023/06/15 12:30:49;;;;;;;1.03;1.00;;;26.40;42.20;;;;;;5016994;28;20406;-73
2023/06/15 12:33:31;;;;;;;1.07;1.07;;;26.70;41.40;;;;;;5016485;28;20421;-73
2023/06/15 12:36:01;;;;;;;1.40;1.30;;;26.70;40.80;;;;;;5016639;28;20489;-74
2023/06/15 12:38:29;;;;;;;1.53;1.43;;;26.50;40.40;;;;;;5016140;28;20426;-73
2023/06/15 12:40:56;;;;;;;1.00;1.00;;;26.20;43.80;;;;;;5016337;28;20439;-73
2023/06/15 12:43:26;;;;;;;1.80;1.60;;;25.70;43.00;;;;;;5014879;28;20488;-73
2023/06/15 12:45:55;;;;;;;2.37;1.50;;;25.20;44.90;;;;;;5016079;28;20990;-72
2023/06/15 12:48:22;;;;;;;1.50;1.23;;;24.90;42.50;;;;;;5015995;28;20428;-73